Skip Navigation Links
NOAA logo - Click to go to the NOAA homepage
NOAA's National Weather Service
Alaska Aviation Weather Unit
  NWS logo - Click to go to the NWS homepage
Left Navbar Graphic     19 AKDT = 03 GMT

   
NOAA is celebrating 200 years of science, service, and stewardship. Visit the NOAA 200th celebration Web site to learn more.
USA.gov is the U.S. Government's official Web portal to all Federal, state and local government Web resources and services.
Facebook
NWS on Facebook

Important Change Regarding the AAWU Web Presence

 

Over the last several months, the AAWU has been working to navigate its webpages to a nationally supported server. Security, as well as other needs, have necessitated the change.  In the process, we have made an effort to enhance the functionality of our website, as well as some of our products. As of June 20, 2017, aawu.arh.noaa.gov will be discontinued. The new AAWU web address is weather.gov/aawu. It is now live and will run in-parallel with the old site until it is discontinued. Please send any feedback or questions regarding the new webpages to nws.ar.aawu.webauthors@noaa.gov.  Thank you for your patience during this time of transition.
AAWU Home :: Display TAF Add Bookmark
SPECI PASA 242147Z AUTO 36007KT 8SM -RA OVC007 02/00 A2961 RMK AO2
     SNB20E30 CIG 004V010 P0000 FZRANO $=

METAR PASA 242156Z AUTO 01006KT 5SM -RA BR OVC007 02/00 A2961 RMK
 AO2 SNB20E30 CIG 005V011 SLP030 P0000 T00170000 FZRANO $=

METAR PASA 242256Z AUTO 36005KT 10SM BKN009 OVC020 03/01 A2962 RMK AO2
     RAE52 CIG 007V011 SLP033 P0000 T00330006 $=

SPECI PASA 242313Z AUTO 33007KT 10SM OVC011 03/00 A2962 RMK AO2 $=

SPECI PASA 242334Z AUTO 33008KT 10SM SCT013 OVC020 03/M01 A2962 RMK
 AO2 $=

SPECI PASA 250017Z AUTO 33010KT 10SM -RA FEW008 BKN014 OVC029 03/00
     A2963 RMK AO2 UPB09E11 P0000 $=

SPECI PASA 250046Z AUTO 34009KT 2SM -SN BR BKN008 BKN014 OVC022 02/00
     A2964 RMK AO2 VIS 1 1/2V3 RAE30UPB09E11SNB30 P0000 FZRANO
     $=

METAR PASA 250056Z AUTO 32009KT 2 1/2SM UP BR BKN008 BKN016 OVC023 02/00
     A2964 RMK AO2 RAE30UPB09E11B55SNB30E55 SLP039 P0000 T00220000
     FZRANO $=

SPECI PASA 250107Z AUTO 33007KT 7SM -RA BKN008 BKN020 OVC030 02/M01
     A2964 RMK AO2 UPE02RAB02 CIG 007V013 P0000 FZRANO $=

SPECI PASA 250118Z AUTO 32008KT 10SM -RA FEW008 BKN027 OVC049 03/00
     A2964 RMK AO2 UPE02RAB02 P0000 $=

SPECI PASA 250125Z AUTO 32009KT 10SM FEW008 SCT026 BKN049 02/M02 A2964
     RMK AO2 UPE02RAB02E22 P0000 FZRANO $=

METAR PASA 250156Z AUTO 31007KT 10SM OVC049 02/M02 A2965 RMK AO2
     UPE02RAB02E22 SLP041 P0000 T00171022 FZRANO $=

SPECI PASA 250254Z AUTO 27004KT 10SM OVC028 02/M02 A2965 RMK AO2 FZRANO
     $=

METAR PASA 250256Z AUTO 28004KT 10SM OVC026 02/M02 A2965 RMK AO2
 SLP044 60000 T00171022 51005 FZRANO $=


NOAA's National Weather Service
Alaska Aviation Weather Unit
6930 Sand Lake Road
Anchorage, AK 99502-1845
Disclaimer
Credits
Glossary
Privacy Policy
About Us
Career Opportunities
Contact AAWU Internet Services Site last modified: April, 17th 2012